sensor_id;sensor_type;location;lat;lon;timestamp;temperature;humidity
43808;DHT22;29438;50.664;10.098;2022-10-26T00:00:26;6.70;95.70
43808;DHT22;29438;50.664;10.098;2022-10-26T00:02:53;6.80;95.70
43808;DHT22;29438;50.664;10.098;2022-10-26T00:05:19;6.80;95.70
43808;DHT22;29438;50.664;10.098;2022-10-26T00:07:46;6.80;95.70
43808;DHT22;29438;50.664;10.098;2022-10-26T00:10:12;6.90;95.70
43808;DHT22;29438;50.664;10.098;2022-10-26T00:12:38;7.00;95.70
43808;DHT22;29438;50.664;10.098;2022-10-26T00:15:04;7.00;95.70
43808;DHT22;29438;50.664;10.098;2022-10-26T00:17:29;7.00;95.70
43808;DHT22;29438;50.664;10.098;2022-10-26T00:19:55;7.00;95.70
43808;DHT22;29438;50.664;10.098;2022-10-26T00:22:22;7.00;95.70
43808;DHT22;29438;50.664;10.098;2022-10-26T00:24:48;7.00;95.80
43808;DHT22;29438;50.664;10.098;2022-10-26T00:27:13;7.00;95.80
43808;DHT22;29438;50.664;10.098;2022-10-26T00:29:39;7.00;95.80
43808;DHT22;29438;50.664;10.098;2022-10-26T00:32:05;7.00;95.80
43808;DHT22;29438;50.664;10.098;2022-10-26T00:34:32;7.10;95.80
43808;DHT22;29438;50.664;10.098;2022-10-26T00:36:57;7.20;95.90
43808;DHT22;29438;50.664;10.098;2022-10-26T00:39:23;7.30;95.90
43808;DHT22;29438;50.664;10.098;2022-10-26T00:41:48;7.30;95.90
43808;DHT22;29438;50.664;10.098;2022-10-26T00:49:59;7.30;95.80
43808;DHT22;29438;50.664;10.098;2022-10-26T00:52:27;7.30;95.80
43808;DHT22;29438;50.664;10.098;2022-10-26T00:54:53;7.20;95.80
43808;DHT22;29438;50.664;10.098;2022-10-26T00:57:19;7.30;95.80
43808;DHT22;29438;50.664;10.098;2022-10-26T00:59:46;7.30;95.80
43808;DHT22;29438;50.664;10.098;2022-10-26T01:02:12;7.30;95.80
43808;DHT22;29438;50.664;10.098;2022-10-26T01:04:38;7.30;95.80
43808;DHT22;29438;50.664;10.098;2022-10-26T01:07:04;7.30;95.80
43808;DHT22;29438;50.664;10.098;2022-10-26T01:09:31;7.20;95.80
43808;DHT22;29438;50.664;10.098;2022-10-26T01:11:57;7.20;95.80
43808;DHT22;29438;50.664;10.098;2022-10-26T01:14:23;7.20;95.80
43808;DHT22;29438;50.664;10.098;2022-10-26T01:31:05;7.30;95.90
43808;DHT22;29438;50.664;10.098;2022-10-26T01:33:40;7.30;95.80
43808;DHT22;29438;50.664;10.098;2022-10-26T01:36:33;7.20;95.80
43808;DHT22;29438;50.664;10.098;2022-10-26T01:39:25;7.10;95.80
43808;DHT22;29438;50.664;10.098;2022-10-26T01:41:58;7.10;95.80
43808;DHT22;29438;50.664;10.098;2022-10-26T01:44:40;7.10;95.80
43808;DHT22;29438;50.664;10.098;2022-10-26T01:47:09;7.00;95.80
43808;DHT22;29438;50.664;10.098;2022-10-26T01:49:39;7.00;95.70
43808;DHT22;29438;50.664;10.098;2022-10-26T01:52:08;7.00;95.70
43808;DHT22;29438;50.664;10.098;2022-10-26T01:54:35;7.00;95.80
43808;DHT22;29438;50.664;10.098;2022-10-26T01:57:04;7.00;95.80
43808;DHT22;29438;50.664;10.098;2022-10-26T02:13:15;7.00;95.90
43808;DHT22;29438;50.664;10.098;2022-10-26T02:21:05;7.00;95.90
43808;DHT22;29438;50.664;10.098;2022-10-26T02:23:36;6.90;95.90
43808;DHT22;29438;50.664;10.098;2022-10-26T02:26:05;6.90;95.90
43808;DHT22;29438;50.664;10.098;2022-10-26T02:28:38;6.80;95.90
43808;DHT22;29438;50.664;10.098;2022-10-26T02:31:07;6.90;95.90
43808;DHT22;29438;50.664;10.098;2022-10-26T02:33:37;7.00;95.90
43808;DHT22;29438;50.664;10.098;2022-10-26T02:36:08;7.00;95.90
43808;DHT22;29438;50.664;10.098;2022-10-26T02:38:36;6.90;95.90
43808;DHT22;29438;50.664;10.098;2022-10-26T02:41:05;6.90;95.90
43808;DHT22;29438;50.664;10.098;2022-10-26T02:43:35;6.90;95.90
43808;DHT22;29438;50.664;10.098;2022-10-26T02:46:08;7.00;95.90
43808;DHT22;29438;50.664;10.098;2022-10-26T02:48:35;7.00;96.00
43808;DHT22;29438;50.664;10.098;2022-10-26T02:51:20;7.00;96.00
43808;DHT22;29438;50.664;10.098;2022-10-26T02:53:58;7.10;96.00
43808;DHT22;29438;50.664;10.098;2022-10-26T02:56:34;7.10;96.00
43808;DHT22;29438;50.664;10.098;2022-10-26T02:59:05;7.20;96.10
43808;DHT22;29438;50.664;10.098;2022-10-26T03:01:33;7.20;96.10
43808;DHT22;29438;50.664;10.098;2022-10-26T03:03:59;7.20;96.10
43808;DHT22;29438;50.664;10.098;2022-10-26T03:06:25;7.30;96.10
43808;DHT22;29438;50.664;10.098;2022-10-26T03:08:51;7.30;96.10
43808;DHT22;29438;50.664;10.098;2022-10-26T03:11:17;7.30;96.10
43808;DHT22;29438;50.664;10.098;2022-10-26T03:13:44;7.40;96.20
43808;DHT22;29438;50.664;10.098;2022-10-26T03:16:10;7.50;96.20
43808;DHT22;29438;50.664;10.098;2022-10-26T03:18:35;7.50;96.20
43808;DHT22;29438;50.664;10.098;2022-10-26T03:21:01;7.50;96.20
43808;DHT22;29438;50.664;10.098;2022-10-26T03:23:27;7.60;96.20
43808;DHT22;29438;50.664;10.098;2022-10-26T03:25:56;7.60;96.20
43808;DHT22;29438;50.664;10.098;2022-10-26T03:28:22;7.70;96.20
43808;DHT22;29438;50.664;10.098;2022-10-26T03:30:47;7.70;96.20
43808;DHT22;29438;50.664;10.098;2022-10-26T03:33:13;7.70;96.20
43808;DHT22;29438;50.664;10.098;2022-10-26T03:35:38;7.80;96.20
43808;DHT22;29438;50.664;10.098;2022-10-26T03:38:04;7.80;96.20
43808;DHT22;29438;50.664;10.098;2022-10-26T03:40:29;7.80;96.20
43808;DHT22;29438;50.664;10.098;2022-10-26T03:42:55;7.80;96.20
43808;DHT22;29438;50.664;10.098;2022-10-26T03:45:21;7.90;96.30
43808;DHT22;29438;50.664;10.098;2022-10-26T03:47:47;7.90;96.30
43808;DHT22;29438;50.664;10.098;2022-10-26T03:50:16;8.00;96.30
43808;DHT22;29438;50.664;10.098;2022-10-26T03:52:42;8.00;96.30
43808;DHT22;29438;50.664;10.098;2022-10-26T03:55:08;8.10;96.30
43808;DHT22;29438;50.664;10.098;2022-10-26T03:57:38;8.10;96.30
43808;DHT22;29438;50.664;10.098;2022-10-26T04:00:04;8.20;96.30
43808;DHT22;29438;50.664;10.098;2022-10-26T04:02:30;8.20;96.30
43808;DHT22;29438;50.664;10.098;2022-10-26T04:04:55;8.20;96.30
43808;DHT22;29438;50.664;10.098;2022-10-26T04:07:21;8.20;96.30
43808;DHT22;29438;50.664;10.098;2022-10-26T04:09:46;8.20;96.30
43808;DHT22;29438;50.664;10.098;2022-10-26T04:12:12;8.20;96.40
43808;DHT22;29438;50.664;10.098;2022-10-26T04:14:37;8.20;96.30
43808;DHT22;29438;50.664;10.098;2022-10-26T04:17:03;8.30;96.40
43808;DHT22;29438;50.664;10.098;2022-10-26T04:19:28;8.40;96.40
43808;DHT22;29438;50.664;10.098;2022-10-26T04:21:54;8.60;96.40
43808;DHT22;29438;50.664;10.098;2022-10-26T04:24:19;8.60;96.40
43808;DHT22;29438;50.664;10.098;2022-10-26T04:26:45;8.50;96.40
43808;DHT22;29438;50.664;10.098;2022-10-26T04:29:10;8.50;96.30
43808;DHT22;29438;50.664;10.098;2022-10-26T04:31:38;8.50;96.40
43808;DHT22;29438;50.664;10.098;2022-10-26T04:34:04;8.50;96.40
43808;DHT22;29438;50.664;10.098;2022-10-26T04:36:30;8.50;96.40
43808;DHT22;29438;50.664;10.098;2022-10-26T04:38:55;8.50;96.40
43808;DHT22;29438;50.664;10.098;2022-10-26T04:41:21;8.50;96.40
43808;DHT22;29438;50.664;10.098;2022-10-26T04:43:46;8.60;96.40
43808;DHT22;29438;50.664;10.098;2022-10-26T04:46:12;8.60;96.40
43808;DHT22;29438;50.664;10.098;2022-10-26T04:48:39;8.60;96.40
43808;DHT22;29438;50.664;10.098;2022-10-26T04:51:04;8.70;96.40
43808;DHT22;29438;50.664;10.098;2022-10-26T04:53:30;8.60;96.40
43808;DHT22;29438;50.664;10.098;2022-10-26T04:55:59;8.60;96.40
43808;DHT22;29438;50.664;10.098;2022-10-26T04:58:28;8.50;96.30
43808;DHT22;29438;50.664;10.098;2022-10-26T05:00:56;8.60;96.40
43808;DHT22;29438;50.664;10.098;2022-10-26T05:03:21;8.60;96.40
43808;DHT22;29438;50.664;10.098;2022-10-26T05:05:47;8.50;96.30
43808;DHT22;29438;50.664;10.098;2022-10-26T05:08:14;8.50;96.30
43808;DHT22;29438;50.664;10.098;2022-10-26T05:10:40;8.50;96.30
43808;DHT22;29438;50.664;10.098;2022-10-26T05:13:05;8.50;96.30
43808;DHT22;29438;50.664;10.098;2022-10-26T05:15:31;8.40;96.30
43808;DHT22;29438;50.664;10.098;2022-10-26T05:17:59;8.40;96.30
43808;DHT22;29438;50.664;10.098;2022-10-26T05:20:26;8.40;96.30
43808;DHT22;29438;50.664;10.098;2022-10-26T05:22:56;8.40;96.40
43808;DHT22;29438;50.664;10.098;2022-10-26T05:25:21;8.60;96.40
43808;DHT22;29438;50.664;10.098;2022-10-26T05:27:47;8.60;96.40
43808;DHT22;29438;50.664;10.098;2022-10-26T05:30:13;8.70;96.40
43808;DHT22;29438;50.664;10.098;2022-10-26T05:32:38;8.80;96.40
43808;DHT22;29438;50.664;10.098;2022-10-26T05:35:04;8.80;96.40
43808;DHT22;29438;50.664;10.098;2022-10-26T05:37:30;8.70;96.40
43808;DHT22;29438;50.664;10.098;2022-10-26T05:39:55;8.70;96.40
43808;DHT22;29438;50.664;10.098;2022-10-26T05:42:21;8.70;96.40
43808;DHT22;29438;50.664;10.098;2022-10-26T05:44:46;8.70;96.40
43808;DHT22;29438;50.664;10.098;2022-10-26T05:47:12;8.80;96.40
43808;DHT22;29438;50.664;10.098;2022-10-26T05:49:37;8.70;96.40
43808;DHT22;29438;50.664;10.098;2022-10-26T05:52:04;8.90;96.40
43808;DHT22;29438;50.664;10.098;2022-10-26T05:54:29;8.90;96.40
43808;DHT22;29438;50.664;10.098;2022-10-26T05:56:55;8.80;96.40
43808;DHT22;29438;50.664;10.098;2022-10-26T05:59:21;8.90;96.40
43808;DHT22;29438;50.664;10.098;2022-10-26T06:04:42;8.90;96.40
43808;DHT22;29438;50.664;10.098;2022-10-26T06:07:14;9.00;96.40
43808;DHT22;29438;50.664;10.098;2022-10-26T06:09:41;8.90;96.40
43808;DHT22;29438;50.664;10.098;2022-10-26T06:12:07;8.90;96.40
43808;DHT22;29438;50.664;10.098;2022-10-26T06:14:34;8.90;96.40
43808;DHT22;29438;50.664;10.098;2022-10-26T06:22:44;8.80;96.40
43808;DHT22;29438;50.664;10.098;2022-10-26T06:30:47;9.20;96.50
43808;DHT22;29438;50.664;10.098;2022-10-26T06:33:15;9.20;96.50
43808;DHT22;29438;50.664;10.098;2022-10-26T06:38:12;9.30;96.50
43808;DHT22;29438;50.664;10.098;2022-10-26T06:40:40;9.50;96.50
43808;DHT22;29438;50.664;10.098;2022-10-26T06:43:33;9.50;96.50
43808;DHT22;29438;50.664;10.098;2022-10-26T06:49:16;9.50;96.50
43808;DHT22;29438;50.664;10.098;2022-10-26T06:51:58;9.60;96.50
43808;DHT22;29438;50.664;10.098;2022-10-26T06:54:53;9.60;96.50
43808;DHT22;29438;50.664;10.098;2022-10-26T06:57:21;9.70;96.40
43808;DHT22;29438;50.664;10.098;2022-10-26T06:59:59;9.80;96.40
43808;DHT22;29438;50.664;10.098;2022-10-26T07:02:26;9.80;96.40
43808;DHT22;29438;50.664;10.098;2022-10-26T07:04:51;9.90;96.40
43808;DHT22;29438;50.664;10.098;2022-10-26T07:07:24;10.00;96.40
43808;DHT22;29438;50.664;10.098;2022-10-26T07:09:51;10.00;96.40
43808;DHT22;29438;50.664;10.098;2022-10-26T07:12:16;10.10;96.40
43808;DHT22;29438;50.664;10.098;2022-10-26T07:14:42;10.10;96.40
43808;DHT22;29438;50.664;10.098;2022-10-26T07:17:08;10.20;96.40
43808;DHT22;29438;50.664;10.098;2022-10-26T07:19:34;10.20;96.30
43808;DHT22;29438;50.664;10.098;2022-10-26T07:21:59;10.30;96.20
43808;DHT22;29438;50.664;10.098;2022-10-26T07:24:26;10.30;96.10
43808;DHT22;29438;50.664;10.098;2022-10-26T07:26:55;10.40;96.10
43808;DHT22;29438;50.664;10.098;2022-10-26T07:29:22;10.50;96.00
43808;DHT22;29438;50.664;10.098;2022-10-26T07:31:47;10.60;95.90
43808;DHT22;29438;50.664;10.098;2022-10-26T07:34:13;10.70;95.70
43808;DHT22;29438;50.664;10.098;2022-10-26T07:36:39;10.80;95.50
43808;DHT22;29438;50.664;10.098;2022-10-26T07:39:05;10.80;95.00
43808;DHT22;29438;50.664;10.098;2022-10-26T07:41:30;10.70;94.60
43808;DHT22;29438;50.664;10.098;2022-10-26T07:43:56;10.80;94.40
43808;DHT22;29438;50.664;10.098;2022-10-26T07:46:22;10.90;94.20
43808;DHT22;29438;50.664;10.098;2022-10-26T07:48:48;10.80;93.40
43808;DHT22;29438;50.664;10.098;2022-10-26T07:51:13;10.70;92.80
43808;DHT22;29438;50.664;10.098;2022-10-26T07:53:39;10.70;92.80
43808;DHT22;29438;50.664;10.098;2022-10-26T07:56:05;10.70;92.40
43808;DHT22;29438;50.664;10.098;2022-10-26T07:58:31;10.70;92.00
43808;DHT22;29438;50.664;10.098;2022-10-26T08:00:57;10.70;92.10
43808;DHT22;29438;50.664;10.098;2022-10-26T08:03:28;10.70;92.10
43808;DHT22;29438;50.664;10.098;2022-10-26T08:05:54;10.70;92.20
43808;DHT22;29438;50.664;10.098;2022-10-26T08:08:20;10.70;92.30
43808;DHT22;29438;50.664;10.098;2022-10-26T08:10:46;10.70;92.20
43808;DHT22;29438;50.664;10.098;2022-10-26T08:13:13;10.80;92.10
43808;DHT22;29438;50.664;10.098;2022-10-26T08:15:38;10.70;91.90
43808;DHT22;29438;50.664;10.098;2022-10-26T08:18:04;10.70;91.80
43808;DHT22;29438;50.664;10.098;2022-10-26T08:20:30;10.70;91.70
43808;DHT22;29438;50.664;10.098;2022-10-26T08:22:56;10.70;91.70
43808;DHT22;29438;50.664;10.098;2022-10-26T08:25:22;10.70;91.90
43808;DHT22;29438;50.664;10.098;2022-10-26T08:28:13;10.70;92.00
43808;DHT22;29438;50.664;10.098;2022-10-26T08:30:44;10.80;92.00
43808;DHT22;29438;50.664;10.098;2022-10-26T08:33:10;10.90;91.80
43808;DHT22;29438;50.664;10.098;2022-10-26T08:35:35;11.00;91.60
43808;DHT22;29438;50.664;10.098;2022-10-26T08:38:01;11.10;91.40
43808;DHT22;29438;50.664;10.098;2022-10-26T08:40:31;11.00;91.00
43808;DHT22;29438;50.664;10.098;2022-10-26T08:46:05;10.90;90.90
43808;DHT22;29438;50.664;10.098;2022-10-26T08:48:37;10.90;91.10
43808;DHT22;29438;50.664;10.098;2022-10-26T08:51:23;11.00;91.10
43808;DHT22;29438;50.664;10.098;2022-10-26T08:56:48;11.00;90.90
43808;DHT22;29438;50.664;10.098;2022-10-26T08:59:37;11.00;90.80
43808;DHT22;29438;50.664;10.098;2022-10-26T09:02:13;11.20;91.00
43808;DHT22;29438;50.664;10.098;2022-10-26T09:04:40;11.20;90.80
43808;DHT22;29438;50.664;10.098;2022-10-26T09:09:47;11.50;90.20
43808;DHT22;29438;50.664;10.098;2022-10-26T09:26:19;12.20;88.80
43808;DHT22;29438;50.664;10.098;2022-10-26T09:28:47;12.10;88.40
43808;DHT22;29438;50.664;10.098;2022-10-26T09:31:15;12.10;88.40
43808;DHT22;29438;50.664;10.098;2022-10-26T09:33:41;12.20;88.00
43808;DHT22;29438;50.664;10.098;2022-10-26T09:36:18;12.30;88.20
43808;DHT22;29438;50.664;10.098;2022-10-26T09:39:07;12.50;86.80
43808;DHT22;29438;50.664;10.098;2022-10-26T09:41:41;12.80;86.40
43808;DHT22;29438;50.664;10.098;2022-10-26T09:44:33;13.20;86.70
43808;DHT22;29438;50.664;10.098;2022-10-26T09:47:21;13.20;84.60
43808;DHT22;29438;50.664;10.098;2022-10-26T09:49:52;13.20;85.90
43808;DHT22;29438;50.664;10.098;2022-10-26T09:52:18;13.70;85.70
43808;DHT22;29438;50.664;10.098;2022-10-26T09:54:45;14.10;84.40
43808;DHT22;29438;50.664;10.098;2022-10-26T09:57:14;14.40;83.00
43808;DHT22;29438;50.664;10.098;2022-10-26T09:59:40;14.80;80.50
43808;DHT22;29438;50.664;10.098;2022-10-26T10:02:38;15.10;79.50
43808;DHT22;29438;50.664;10.098;2022-10-26T10:05:34;15.70;78.90
43808;DHT22;29438;50.664;10.098;2022-10-26T10:08:22;16.20;76.30
43808;DHT22;29438;50.664;10.098;2022-10-26T10:11:01;17.00;75.40
43808;DHT22;29438;50.664;10.098;2022-10-26T10:13:33;16.30;74.40
43808;DHT22;29438;50.664;10.098;2022-10-26T10:16:22;16.30;75.90
43808;DHT22;29438;50.664;10.098;2022-10-26T10:18:57;16.10;76.00
43808;DHT22;29438;50.664;10.098;2022-10-26T10:21:43;16.10;77.10
43808;DHT22;29438;50.664;10.098;2022-10-26T10:24:23;16.00;77.70
43808;DHT22;29438;50.664;10.098;2022-10-26T10:27:01;15.90;78.20
43808;DHT22;29438;50.664;10.098;2022-10-26T10:32:01;16.00;76.50
43808;DHT22;29438;50.664;10.098;2022-10-26T10:34:30;16.00;78.00
43808;DHT22;29438;50.664;10.098;2022-10-26T10:36:56;16.00;76.80
43808;DHT22;29438;50.664;10.098;2022-10-26T10:39:39;16.00;77.90
43808;DHT22;29438;50.664;10.098;2022-10-26T10:42:26;16.10;77.30
43808;DHT22;29438;50.664;10.098;2022-10-26T10:44:53;16.30;77.50
43808;DHT22;29438;50.664;10.098;2022-10-26T10:47:34;16.60;75.80
43808;DHT22;29438;50.664;10.098;2022-10-26T10:50:19;16.50;76.00
43808;DHT22;29438;50.664;10.098;2022-10-26T10:52:45;16.70;76.30
43808;DHT22;29438;50.664;10.098;2022-10-26T10:57:55;16.70;76.50
43808;DHT22;29438;50.664;10.098;2022-10-26T11:00:24;17.10;75.80
43808;DHT22;29438;50.664;10.098;2022-10-26T11:05:39;17.70;75.50
43808;DHT22;29438;50.664;10.098;2022-10-26T11:08:18;17.70;75.60
43808;DHT22;29438;50.664;10.098;2022-10-26T11:10:57;18.00;73.30
43808;DHT22;29438;50.664;10.098;2022-10-26T11:13:28;18.20;73.70
43808;DHT22;29438;50.664;10.098;2022-10-26T11:16:03;17.90;74.40
43808;DHT22;29438;50.664;10.098;2022-10-26T11:18:43;18.20;74.40
43808;DHT22;29438;50.664;10.098;2022-10-26T11:21:29;18.20;74.40
43808;DHT22;29438;50.664;10.098;2022-10-26T11:26:45;18.00;74.90
43808;DHT22;29438;50.664;10.098;2022-10-26T11:29:24;18.80;73.20
43808;DHT22;29438;50.664;10.098;2022-10-26T11:32:06;19.40;72.30
43808;DHT22;29438;50.664;10.098;2022-10-26T11:37:44;18.10;73.80
43808;DHT22;29438;50.664;10.098;2022-10-26T11:43:16;18.50;74.50
43808;DHT22;29438;50.664;10.098;2022-10-26T11:51:22;18.40;73.40
43808;DHT22;29438;50.664;10.098;2022-10-26T11:53:48;18.40;73.70
43808;DHT22;29438;50.664;10.098;2022-10-26T11:56:27;18.30;74.30
43808;DHT22;29438;50.664;10.098;2022-10-26T11:58:55;18.20;74.40
43808;DHT22;29438;50.664;10.098;2022-10-26T12:01:22;18.10;74.20
43808;DHT22;29438;50.664;10.098;2022-10-26T12:03:50;17.80;74.60
43808;DHT22;29438;50.664;10.098;2022-10-26T12:06:24;17.50;75.70
43808;DHT22;29438;50.664;10.098;2022-10-26T12:11:49;17.20;76.70
43808;DHT22;29438;50.664;10.098;2022-10-26T12:14:31;16.80;77.40
43808;DHT22;29438;50.664;10.098;2022-10-26T12:17:14;16.70;78.80
43808;DHT22;29438;50.664;10.098;2022-10-26T12:22:31;17.40;77.50
43808;DHT22;29438;50.664;10.098;2022-10-26T12:30:34;17.90;75.20
43808;DHT22;29438;50.664;10.098;2022-10-26T12:33:00;17.90;76.00
43808;DHT22;29438;50.664;10.098;2022-10-26T12:35:34;17.90;75.60
43808;DHT22;29438;50.664;10.098;2022-10-26T12:48:50;17.70;76.40
43808;DHT22;29438;50.664;10.098;2022-10-26T13:05:28;16.20;80.10
43808;DHT22;29438;50.664;10.098;2022-10-26T13:08:06;16.10;80.80
43808;DHT22;29438;50.664;10.098;2022-10-26T13:10:33;16.00;81.30
43808;DHT22;29438;50.664;10.098;2022-10-26T13:13:01;15.90;81.40
43808;DHT22;29438;50.664;10.098;2022-10-26T13:15:50;15.80;81.70
43808;DHT22;29438;50.664;10.098;2022-10-26T13:18:18;15.80;82.00
43808;DHT22;29438;50.664;10.098;2022-10-26T13:21:09;15.90;81.70
43808;DHT22;29438;50.664;10.098;2022-10-26T13:23:39;15.90;81.50
43808;DHT22;29438;50.664;10.098;2022-10-26T13:28:42;16.10;81.30
43808;DHT22;29438;50.664;10.098;2022-10-26T13:41:42;16.40;80.80
43808;DHT22;29438;50.664;10.098;2022-10-26T13:44:18;16.60;80.30
43808;DHT22;29438;50.664;10.098;2022-10-26T13:46:53;16.80;79.80
43808;DHT22;29438;50.664;10.098;2022-10-26T13:49:28;16.90;79.10
43808;DHT22;29438;50.664;10.098;2022-10-26T13:51:55;16.90;78.90
43808;DHT22;29438;50.664;10.098;2022-10-26T13:54:53;16.80;79.40
43808;DHT22;29438;50.664;10.098;2022-10-26T13:57:34;16.90;79.20
43808;DHT22;29438;50.664;10.098;2022-10-26T14:00:07;17.10;79.40
43808;DHT22;29438;50.664;10.098;2022-10-26T14:02:33;17.20;78.70
43808;DHT22;29438;50.664;10.098;2022-10-26T14:05:00;17.10;78.90
43808;DHT22;29438;50.664;10.098;2022-10-26T14:07:35;17.00;79.00
43808;DHT22;29438;50.664;10.098;2022-10-26T14:10:02;16.90;79.40
43808;DHT22;29438;50.664;10.098;2022-10-26T14:12:27;16.80;79.60
43808;DHT22;29438;50.664;10.098;2022-10-26T14:15:14;16.70;80.50
43808;DHT22;29438;50.664;10.098;2022-10-26T14:17:40;16.70;80.50
43808;DHT22;29438;50.664;10.098;2022-10-26T14:20:06;16.60;80.50
43808;DHT22;29438;50.664;10.098;2022-10-26T14:22:42;16.60;80.90
43808;DHT22;29438;50.664;10.098;2022-10-26T14:25:37;16.60;80.60
43808;DHT22;29438;50.664;10.098;2022-10-26T14:28:15;16.60;80.70
43808;DHT22;29438;50.664;10.098;2022-10-26T14:30:44;16.60;80.40
43808;DHT22;29438;50.664;10.098;2022-10-26T14:33:17;16.60;80.10
43808;DHT22;29438;50.664;10.098;2022-10-26T14:35:44;16.60;80.20
43808;DHT22;29438;50.664;10.098;2022-10-26T14:38:24;16.50;79.70
43808;DHT22;29438;50.664;10.098;2022-10-26T14:40:55;16.40;80.10
43808;DHT22;29438;50.664;10.098;2022-10-26T14:43:22;16.30;80.80
43808;DHT22;29438;50.664;10.098;2022-10-26T14:45:51;16.30;81.20
43808;DHT22;29438;50.664;10.098;2022-10-26T14:48:37;16.20;81.50
43808;DHT22;29438;50.664;10.098;2022-10-26T14:51:17;16.00;81.90
43808;DHT22;29438;50.664;10.098;2022-10-26T14:53:54;15.90;81.90
43808;DHT22;29438;50.664;10.098;2022-10-26T14:56:30;15.70;82.30
43808;DHT22;29438;50.664;10.098;2022-10-26T14:58:57;15.60;82.80
43808;DHT22;29438;50.664;10.098;2022-10-26T15:01:28;15.50;83.10
43808;DHT22;29438;50.664;10.098;2022-10-26T15:03:58;15.30;83.30
43808;DHT22;29438;50.664;10.098;2022-10-26T15:09:00;15.20;83.90
43808;DHT22;29438;50.664;10.098;2022-10-26T15:11:27;15.20;84.00
43808;DHT22;29438;50.664;10.098;2022-10-26T15:13:54;15.20;84.20
43808;DHT22;29438;50.664;10.098;2022-10-26T15:16:23;15.10;84.10
43808;DHT22;29438;50.664;10.098;2022-10-26T15:19:09;15.20;84.30
43808;DHT22;29438;50.664;10.098;2022-10-26T15:21:37;15.20;84.10
43808;DHT22;29438;50.664;10.098;2022-10-26T15:24:35;15.20;84.10
43808;DHT22;29438;50.664;10.098;2022-10-26T15:27:02;15.20;83.90
43808;DHT22;29438;50.664;10.098;2022-10-26T15:32:03;15.10;83.80
43808;DHT22;29438;50.664;10.098;2022-10-26T15:34:29;14.90;84.00
43808;DHT22;29438;50.664;10.098;2022-10-26T15:36:55;14.80;84.50
43808;DHT22;29438;50.664;10.098;2022-10-26T15:39:20;14.70;85.00
43808;DHT22;29438;50.664;10.098;2022-10-26T15:41:47;14.70;85.30
43808;DHT22;29438;50.664;10.098;2022-10-26T15:44:19;14.70;85.40
43808;DHT22;29438;50.664;10.098;2022-10-26T15:46:45;14.70;85.60
43808;DHT22;29438;50.664;10.098;2022-10-26T15:49:19;14.70;85.60
43808;DHT22;29438;50.664;10.098;2022-10-26T15:51:46;14.70;85.70
43808;DHT22;29438;50.664;10.098;2022-10-26T15:54:12;14.80;85.50
43808;DHT22;29438;50.664;10.098;2022-10-26T15:56:38;14.80;85.30
43808;DHT22;29438;50.664;10.098;2022-10-26T15:59:14;14.80;85.50
43808;DHT22;29438;50.664;10.098;2022-10-26T16:01:40;14.80;85.60
43808;DHT22;29438;50.664;10.098;2022-10-26T16:04:08;14.70;85.90
43808;DHT22;29438;50.664;10.098;2022-10-26T16:06:34;14.70;86.10
43808;DHT22;29438;50.664;10.098;2022-10-26T16:09:02;14.80;86.20
43808;DHT22;29438;50.664;10.098;2022-10-26T16:11:28;14.80;86.20
43808;DHT22;29438;50.664;10.098;2022-10-26T16:13:54;14.80;86.30
43808;DHT22;29438;50.664;10.098;2022-10-26T16:16:20;14.70;86.50
43808;DHT22;29438;50.664;10.098;2022-10-26T16:18:46;14.60;86.80
43808;DHT22;29438;50.664;10.098;2022-10-26T16:21:17;14.50;87.10
43808;DHT22;29438;50.664;10.098;2022-10-26T16:23:45;14.50;87.50
43808;DHT22;29438;50.664;10.098;2022-10-26T16:26:11;14.40;87.70
43808;DHT22;29438;50.664;10.098;2022-10-26T16:28:37;14.30;87.80
43808;DHT22;29438;50.664;10.098;2022-10-26T16:31:05;14.20;88.20
43808;DHT22;29438;50.664;10.098;2022-10-26T16:33:33;14.20;88.50
43808;DHT22;29438;50.664;10.098;2022-10-26T16:36:00;14.10;88.50
43808;DHT22;29438;50.664;10.098;2022-10-26T16:38:26;13.90;88.70
43808;DHT22;29438;50.664;10.098;2022-10-26T16:41:06;13.80;89.10
43808;DHT22;29438;50.664;10.098;2022-10-26T16:43:34;13.90;89.80
43808;DHT22;29438;50.664;10.098;2022-10-26T16:46:11;13.80;89.60
43808;DHT22;29438;50.664;10.098;2022-10-26T16:48:38;13.90;89.90
43808;DHT22;29438;50.664;10.098;2022-10-26T16:51:05;13.90;89.70
43808;DHT22;29438;50.664;10.098;2022-10-26T16:53:31;13.90;89.60
43808;DHT22;29438;50.664;10.098;2022-10-26T16:56:12;13.80;89.70
43808;DHT22;29438;50.664;10.098;2022-10-26T16:58:38;13.70;89.70
43808;DHT22;29438;50.664;10.098;2022-10-26T17:01:05;13.60;89.90
43808;DHT22;29438;50.664;10.098;2022-10-26T17:03:31;13.60;90.20
43808;DHT22;29438;50.664;10.098;2022-10-26T17:05:59;13.60;90.30
43808;DHT22;29438;50.664;10.098;2022-10-26T17:08:26;13.50;90.40
43808;DHT22;29438;50.664;10.098;2022-10-26T17:10:53;13.40;90.40
43808;DHT22;29438;50.664;10.098;2022-10-26T17:13:19;13.40;90.50
43808;DHT22;29438;50.664;10.098;2022-10-26T17:15:46;13.20;90.50
43808;DHT22;29438;50.664;10.098;2022-10-26T17:18:11;13.20;90.90
43808;DHT22;29438;50.664;10.098;2022-10-26T17:20:38;13.10;90.90
43808;DHT22;29438;50.664;10.098;2022-10-26T17:23:04;12.90;91.00
43808;DHT22;29438;50.664;10.098;2022-10-26T17:25:34;13.00;91.40
43808;DHT22;29438;50.664;10.098;2022-10-26T17:28:00;12.90;91.60
43808;DHT22;29438;50.664;10.098;2022-10-26T17:30:27;12.80;91.60
43808;DHT22;29438;50.664;10.098;2022-10-26T17:32:53;12.80;91.90
43808;DHT22;29438;50.664;10.098;2022-10-26T17:35:19;12.80;91.90
43808;DHT22;29438;50.664;10.098;2022-10-26T17:37:44;12.80;91.90
43808;DHT22;29438;50.664;10.098;2022-10-26T17:40:10;12.50;91.80
43808;DHT22;29438;50.664;10.098;2022-10-26T17:42:36;12.50;92.20
43808;DHT22;29438;50.664;10.098;2022-10-26T17:45:01;12.60;92.40
43808;DHT22;29438;50.664;10.098;2022-10-26T17:47:27;12.60;92.70
43808;DHT22;29438;50.664;10.098;2022-10-26T17:49:52;12.40;92.40
43808;DHT22;29438;50.664;10.098;2022-10-26T17:52:18;12.30;92.40
43808;DHT22;29438;50.664;10.098;2022-10-26T17:54:44;12.40;92.70
43808;DHT22;29438;50.664;10.098;2022-10-26T17:57:09;12.70;93.20
43808;DHT22;29438;50.664;10.098;2022-10-26T17:59:35;12.60;92.70
43808;DHT22;29438;50.664;10.098;2022-10-26T18:02:00;12.30;92.50
43808;DHT22;29438;50.664;10.098;2022-10-26T18:04:26;12.30;92.70
43808;DHT22;29438;50.664;10.098;2022-10-26T18:06:52;12.40;92.80
43808;DHT22;29438;50.664;10.098;2022-10-26T18:09:17;12.30;92.70
43808;DHT22;29438;50.664;10.098;2022-10-26T18:11:43;12.30;92.80
43808;DHT22;29438;50.664;10.098;2022-10-26T18:14:09;12.30;92.90
43808;DHT22;29438;50.664;10.098;2022-10-26T18:16:34;12.20;92.80